Test XHTML 1.0 Strict Page for WU-History Testing
Station Historical Data
 
Daily Summary for December 16, 2017 Units:  Both    English   Metric
« Previous Day
Next Day »
Daily Weekly Monthly Yearly Custom
  Current: High: Low: Average:
Temperature: 33.3 °F /  0.7 °C 34.9 °F /  1.6 °C 23.7 °F /  -4.6 °C 29.9 °F /  -1.2 °C
Dew Point: 32.5 °F /  0.3 °C 34.4 °F /  1.3 °C 23.7 °F /  -4.6 °C 29.7 °F /  -1.3 °C
Humidity: 97 % 100 % 97 % 99 %
Wind Speed: 0.0 mph /  0 km/h 2.3 mph /  3.7 km/h - 0 mph /  0 km/h
Wind Gust: 0.0 mph /  0 km/h 2.3 mph /  3.7 km/h - -
Wind:Calm - - SW
Pressure: 30.19 in /  1022.2 hPa 30.19 in /  1022.2 hPa 29.91 in /  1012.8 hPa -
Precipitation: 0.06 in /  1.52 mm      
Historical Graphs
 
 
Weather-Above Climate History
Untitled
Tabular Data for December 16, 2017
Time Temperature Dew Point Pressure Wind Wind Speed Wind Gust Humidity Rainfall Rate (Hourly) solar Conditions
00:02 27.9 °F /  -2.3 °C 27.9 °F /  -2.3 °C 29.91 in /  1012.8 hPa Calm     100 % 0.00 in /  0 mm 16.0 W/m2 RA
00:07 27.9 °F /  -2.3 °C 27.9 °F /  -2.3 °C 29.91 in /  1012.8 hPa Calm     100 % 0.00 in /  0 mm 40.0 W/m2 RA
00:12 27.7 °F /  -2.4 °C 27.7 °F /  -2.4 °C 29.91 in /  1012.8 hPa Calm     100 % 0.00 in /  0 mm 0.0 W/m2
00:17 27.5 °F /  -2.5 °C 27.5 °F /  -2.5 °C 29.91 in /  1012.8 hPa Calm     100 % 0.00 in /  0 mm 0.0 W/m2
00:19 27.7 °F /  -2.4 °C 27.7 °F /  -2.4 °C 29.91 in /  1012.8 hPa Calm     100 % 0.00 in /  0 mm 0.0 W/m2
00:25 27.5 °F /  -2.5 °C 27.5 °F /  -2.5 °C 29.91 in /  1012.8 hPa Calm     100 % 0.00 in /  0 mm 0.0 W/m2
00:29 27.1 °F /  -2.7 °C 27.1 °F /  -2.7 °C 29.91 in /  1012.8 hPa Calm     100 % 0.00 in /  0 mm 22.0 W/m2
00:35 27.1 °F /  -2.7 °C 27.1 °F /  -2.7 °C 29.91 in /  1012.8 hPa Calm     100 % 0.00 in /  0 mm 0.0 W/m2
00:40 27.3 °F /  -2.6 °C 27.3 °F /  -2.6 °C 29.91 in /  1012.8 hPa Calm     100 % 0.00 in /  0 mm 0.0 W/m2
00:45 27.1 °F /  -2.7 °C 27.1 °F /  -2.7 °C 29.92 in /  1013.1 hPa Calm     100 % 0.00 in /  0 mm 0.0 W/m2
00:50 27.0 °F /  -2.8 °C 27.0 °F /  -2.8 °C 29.92 in /  1013.1 hPa Calm     100 % 0.00 in /  0 mm 0.0 W/m2
00:55 27.1 °F /  -2.7 °C 27.1 °F /  -2.7 °C 29.92 in /  1013.1 hPa Calm     100 % 0.00 in /  0 mm 0.0 W/m2
00:59 27.0 °F /  -2.8 °C 27.0 °F /  -2.8 °C 29.91 in /  1012.8 hPa Calm     100 % 0.00 in /  0 mm 0.0 W/m2
01:04 27.0 °F /  -2.8 °C 27.0 °F /  -2.8 °C 29.93 in /  1013.4 hPa Calm     100 % 0.00 in /  0 mm 0.0 W/m2
01:09 26.8 °F /  -2.9 °C 26.8 °F /  -2.9 °C 29.92 in /  1013.1 hPa Calm     100 % 0.00 in /  0 mm 0.0 W/m2
01:14 26.6 °F /  -3 °C 26.6 °F /  -3 °C 29.93 in /  1013.4 hPa Calm     100 % 0.00 in /  0 mm 0.0 W/m2
01:19 26.6 °F /  -3 °C 26.6 °F /  -3 °C 29.93 in /  1013.4 hPa Calm     100 % 0.00 in /  0 mm 0.0 W/m2
01:20 26.4 °F /  -3.1 °C 26.4 °F /  -3.1 °C 29.93 in /  1013.4 hPa Calm     100 % 0.00 in /  0 mm 0.0 W/m2
01:22 26.2 °F /  -3.2 °C 26.2 °F /  -3.2 °C 29.93 in /  1013.4 hPa Calm     100 % 0.00 in /  0 mm 0.0 W/m2
01:27 26.2 °F /  -3.2 °C 26.2 °F /  -3.2 °C 29.93 in /  1013.4 hPa Calm     100 % 0.00 in /  0 mm 0.0 W/m2
01:32 26.2 °F /  -3.2 °C 26.2 °F /  -3.2 °C 29.93 in /  1013.4 hPa Calm     100 % 0.00 in /  0 mm 42.0 W/m2
01:37 26.2 °F /  -3.2 °C 26.2 °F /  -3.2 °C 29.94 in /  1013.8 hPa Calm     100 % 0.00 in /  0 mm 0.0 W/m2
01:38 26.2 °F /  -3.2 °C 26.2 °F /  -3.2 °C 29.94 in /  1013.8 hPa Calm     100 % 0.00 in /  0 mm 0.0 W/m2
01:43 26.4 °F /  -3.1 °C 26.4 °F /  -3.1 °C 29.94 in /  1013.8 hPa Calm     100 % 0.00 in /  0 mm 0.0 W/m2
01:45 26.6 °F /  -3 °C 26.6 °F /  -3 °C 29.94 in /  1013.8 hPa Calm     100 % 0.00 in /  0 mm 20.0 W/m2
01:51 26.6 °F /  -3 °C 26.6 °F /  -3 °C 29.93 in /  1013.4 hPa Calm     100 % 0.00 in /  0 mm 0.0 W/m2
01:56 26.6 °F /  -3 °C 26.6 °F /  -3 °C 29.94 in /  1013.8 hPa Calm     100 % 0.00 in /  0 mm 0.0 W/m2
02:02 26.6 °F /  -3 °C 26.6 °F /  -3 °C 29.94 in /  1013.8 hPa Calm     100 % 0.00 in /  0 mm 40.0 W/m2
02:07 26.2 °F /  -3.2 °C 26.2 °F /  -3.2 °C 29.94 in /  1013.8 hPa Calm     100 % 0.00 in /  0 mm 0.0 W/m2
02:12 26.2 °F /  -3.2 °C 26.2 °F /  -3.2 °C 29.94 in /  1013.8 hPa Calm     100 % 0.00 in /  0 mm 0.0 W/m2
02:17 26.2 °F /  -3.2 °C 26.2 °F /  -3.2 °C 29.94 in /  1013.8 hPa Calm     100 % 0.00 in /  0 mm 28.0 W/m2
02:22 26.1 °F /  -3.3 °C 26.1 °F /  -3.3 °C 29.95 in /  1014.1 hPa Calm     100 % 0.00 in /  0 mm 0.0 W/m2
02:27 26.1 °F /  -3.3 °C 26.1 °F /  -3.3 °C 29.95 in /  1014.1 hPa Calm     100 % 0.00 in /  0 mm 0.0 W/m2
02:29 25.9 °F /  -3.4 °C 25.9 °F /  -3.4 °C 29.95 in /  1014.1 hPa Calm     100 % 0.00 in /  0 mm 16.0 W/m2
02:34 26.1 °F /  -3.3 °C 26.1 °F /  -3.3 °C 29.95 in /  1014.1 hPa Calm     100 % 0.00 in /  0 mm 0.0 W/m2
02:43 26.1 °F /  -3.3 °C 26.1 °F /  -3.3 °C 29.95 in /  1014.1 hPa Calm     100 % 0.00 in /  0 mm 0.0 W/m2
02:48 25.7 °F /  -3.5 °C 25.7 °F /  -3.5 °C 29.95 in /  1014.1 hPa Calm     100 % 0.00 in /  0 mm 0.0 W/m2
02:53 25.7 °F /  -3.5 °C 25.7 °F /  -3.5 °C 29.95 in /  1014.1 hPa Calm     100 % 0.00 in /  0 mm 0.0 W/m2
02:58 25.7 °F /  -3.5 °C 25.7 °F /  -3.5 °C 29.96 in /  1014.4 hPa Calm     100 % 0.00 in /  0 mm 0.0 W/m2
03:03 26.1 °F /  -3.3 °C 26.1 °F /  -3.3 °C 29.95 in /  1014.1 hPa Calm     100 % 0.00 in /  0 mm 0.0 W/m2
03:09 26.2 °F /  -3.2 °C 26.2 °F /  -3.2 °C 29.96 in /  1014.4 hPa Calm     100 % 0.00 in /  0 mm 0.0 W/m2
03:16 25.7 °F /  -3.5 °C 25.7 °F /  -3.5 °C 29.97 in /  1014.8 hPa Calm     100 % 0.00 in /  0 mm 15.0 W/m2
03:21 26.1 °F /  -3.3 °C 26.1 °F /  -3.3 °C 29.97 in /  1014.8 hPa Calm     100 % 0.00 in /  0 mm 0.0 W/m2
03:26 26.2 °F /  -3.2 °C 26.2 °F /  -3.2 °C 29.97 in /  1014.8 hPa Calm     100 % 0.00 in /  0 mm 0.0 W/m2
03:30 26.6 °F /  -3 °C 26.6 °F /  -3 °C 29.97 in /  1014.8 hPa Calm     100 % 0.00 in /  0 mm 34.5 W/m2
03:35 26.1 °F /  -3.3 °C 26.1 °F /  -3.3 °C 29.97 in /  1014.8 hPa Calm     100 % 0.00 in /  0 mm 0.0 W/m2
03:40 25.7 °F /  -3.5 °C 25.7 °F /  -3.5 °C 29.97 in /  1014.8 hPa Calm     100 % 0.00 in /  0 mm 0.0 W/m2
03:41 25.7 °F /  -3.5 °C 25.7 °F /  -3.5 °C 29.97 in /  1014.8 hPa Calm     100 % 0.00 in /  0 mm 0.0 W/m2
03:43 25.9 °F /  -3.4 °C 25.9 °F /  -3.4 °C 29.97 in /  1014.8 hPa Calm     100 % 0.00 in /  0 mm 0.0 W/m2
03:48 25.9 °F /  -3.4 °C 25.9 °F /  -3.4 °C 29.97 in /  1014.8 hPa Calm     100 % 0.00 in /  0 mm 0.0 W/m2
03:50 25.7 °F /  -3.5 °C 25.7 °F /  -3.5 °C 29.97 in /  1014.8 hPa Calm     100 % 0.00 in /  0 mm 0.0 W/m2
03:55 25.5 °F /  -3.6 °C 25.5 °F /  -3.6 °C 29.98 in /  1015.1 hPa Calm     100 % 0.00 in /  0 mm 0.0 W/m2
04:02 25.2 °F /  -3.8 °C 25.2 °F /  -3.8 °C 29.97 in /  1014.8 hPa Calm     100 % 0.00 in /  0 mm 0.0 W/m2
04:07 25.2 °F /  -3.8 °C 25.2 °F /  -3.8 °C 29.98 in /  1015.1 hPa Calm     100 % 0.00 in /  0 mm 0.0 W/m2
04:12 24.8 °F /  -4 °C 24.8 °F /  -4 °C 29.98 in /  1015.1 hPa Calm     100 % 0.00 in /  0 mm 0.0 W/m2
04:17 25.2 °F /  -3.8 °C 25.2 °F /  -3.8 °C 29.99 in /  1015.5 hPa Calm     100 % 0.00 in /  0 mm 0.0 W/m2
04:22 25.2 °F /  -3.8 °C 25.2 °F /  -3.8 °C 29.99 in /  1015.5 hPa Calm     100 % 0.00 in /  0 mm 0.0 W/m2
04:27 25.2 °F /  -3.8 °C 25.2 °F /  -3.8 °C 29.98 in /  1015.1 hPa Calm     100 % 0.00 in /  0 mm 0.0 W/m2
04:32 25.3 °F /  -3.7 °C 25.3 °F /  -3.7 °C 29.99 in /  1015.5 hPa Calm     100 % 0.00 in /  0 mm 0.0 W/m2
04:37 25.0 °F /  -3.9 °C 25.0 °F /  -3.9 °C 29.99 in /  1015.5 hPa Calm     100 % 0.00 in /  0 mm 0.0 W/m2
04:38 24.8 °F /  -4 °C 24.8 °F /  -4 °C 29.99 in /  1015.5 hPa Calm     100 % 0.00 in /  0 mm 0.0 W/m2
04:43 24.8 °F /  -4 °C 24.8 °F /  -4 °C 29.99 in /  1015.5 hPa Calm     100 % 0.00 in /  0 mm 0.0 W/m2
04:47 24.8 °F /  -4 °C 24.8 °F /  -4 °C 29.99 in /  1015.5 hPa Calm     100 % 0.00 in /  0 mm 0.0 W/m2
04:52 25.2 °F /  -3.8 °C 25.2 °F /  -3.8 °C 29.99 in /  1015.5 hPa Calm     100 % 0.00 in /  0 mm 0.0 W/m2
04:57 25.0 °F /  -3.9 °C 25.0 °F /  -3.9 °C 29.99 in /  1015.5 hPa Calm     100 % 0.00 in /  0 mm 0.0 W/m2
05:03 24.4 °F /  -4.2 °C 24.4 °F /  -4.2 °C 29.99 in /  1015.5 hPa Calm     100 % 0.00 in /  0 mm 0.0 W/m2
05:06 24.6 °F /  -4.1 °C 24.6 °F /  -4.1 °C 29.99 in /  1015.5 hPa Calm     100 % 0.00 in /  0 mm 0.0 W/m2
05:11 24.8 °F /  -4 °C 24.8 °F /  -4 °C 29.99 in /  1015.5 hPa Calm     100 % 0.00 in /  0 mm 0.0 W/m2
05:14 24.4 °F /  -4.2 °C 24.4 °F /  -4.2 °C 29.99 in /  1015.5 hPa Calm     100 % 0.00 in /  0 mm 34.5 W/m2
05:19 24.3 °F /  -4.3 °C 24.3 °F /  -4.3 °C 30.00 in /  1015.8 hPa Calm     100 % 0.00 in /  0 mm 0.0 W/m2
05:24 24.4 °F /  -4.2 °C 24.4 °F /  -4.2 °C 30.00 in /  1015.8 hPa Calm     100 % 0.00 in /  0 mm 0.0 W/m2
05:29 24.6 °F /  -4.1 °C 24.6 °F /  -4.1 °C 30.00 in /  1015.8 hPa Calm     100 % 0.00 in /  0 mm 27.0 W/m2
05:34 24.3 °F /  -4.3 °C 24.3 °F /  -4.3 °C 30.00 in /  1015.8 hPa Calm     100 % 0.00 in /  0 mm 0.0 W/m2
05:36 24.3 °F /  -4.3 °C 24.3 °F /  -4.3 °C 30.00 in /  1015.8 hPa Calm     100 % 0.00 in /  0 mm 0.0 W/m2
05:41 24.4 °F /  -4.2 °C 24.4 °F /  -4.2 °C 30.00 in /  1015.8 hPa Calm     100 % 0.00 in /  0 mm 0.0 W/m2
05:46 24.4 °F /  -4.2 °C 24.4 °F /  -4.2 °C 30.00 in /  1015.8 hPa Calm     100 % 0.00 in /  0 mm 18.0 W/m2
05:48 24.8 °F /  -4 °C 24.8 °F /  -4 °C 30.00 in /  1015.8 hPa Calm     100 % 0.00 in /  0 mm 0.0 W/m2
05:54 25.2 °F /  -3.8 °C 25.2 °F /  -3.8 °C 30.00 in /  1015.8 hPa Calm     100 % 0.00 in /  0 mm 0.0 W/m2
05:57 24.8 °F /  -4 °C 24.8 °F /  -4 °C 30.00 in /  1015.8 hPa Calm     100 % 0.00 in /  0 mm 0.0 W/m2
06:02 24.4 °F /  -4.2 °C 24.4 °F /  -4.2 °C 30.00 in /  1015.8 hPa Calm     100 % 0.00 in /  0 mm 0.0 W/m2
06:08 24.4 °F /  -4.2 °C 24.4 °F /  -4.2 °C 30.00 in /  1015.8 hPa Calm     100 % 0.00 in /  0 mm 0.0 W/m2
06:14 24.4 °F /  -4.2 °C 24.4 °F /  -4.2 °C 30.01 in /  1016.1 hPa Calm     100 % 0.00 in /  0 mm 18.0 W/m2
06:18 24.1 °F /  -4.4 °C 24.1 °F /  -4.4 °C 30.01 in /  1016.1 hPa Calm     100 % 0.00 in /  0 mm 0.0 W/m2
06:23 23.7 °F /  -4.6 °C 23.7 °F /  -4.6 °C 30.01 in /  1016.1 hPa Calm     100 % 0.00 in /  0 mm 0.0 W/m2
06:28 23.9 °F /  -4.5 °C 23.9 °F /  -4.5 °C 30.01 in /  1016.1 hPa Calm     100 % 0.00 in /  0 mm 16.5 W/m2
06:33 23.9 °F /  -4.5 °C 23.9 °F /  -4.5 °C 30.02 in /  1016.5 hPa Calm     100 % 0.00 in /  0 mm 0.0 W/m2
06:38 23.9 °F /  -4.5 °C 23.9 °F /  -4.5 °C 30.02 in /  1016.5 hPa Calm     100 % 0.00 in /  0 mm 0.0 W/m2
06:42 23.9 °F /  -4.5 °C 23.9 °F /  -4.5 °C 30.02 in /  1016.5 hPa Calm     100 % 0.00 in /  0 mm 0.0 W/m2
06:48 24.1 °F /  -4.4 °C 24.1 °F /  -4.4 °C 30.03 in /  1016.8 hPa Calm     100 % 0.00 in /  0 mm 0.0 W/m2
06:51 24.3 °F /  -4.3 °C 24.3 °F /  -4.3 °C 30.02 in /  1016.5 hPa Calm     100 % 0.00 in /  0 mm 0.0 W/m2
06:56 24.4 °F /  -4.2 °C 24.4 °F /  -4.2 °C 30.02 in /  1016.5 hPa Calm     100 % 0.00 in /  0 mm 0.0 W/m2
07:01 24.4 °F /  -4.2 °C 24.4 °F /  -4.2 °C 30.03 in /  1016.8 hPa Calm     100 % 0.00 in /  0 mm 0.0 W/m2
07:06 24.6 °F /  -4.1 °C 24.6 °F /  -4.1 °C 30.03 in /  1016.8 hPa Calm     100 % 0.00 in /  0 mm 0.0 W/m2
07:12 24.8 °F /  -4 °C 24.8 °F /  -4 °C 30.03 in /  1016.8 hPa Calm     100 % 0.00 in /  0 mm 10.5 W/m2
07:17 25.0 °F /  -3.9 °C 25.0 °F /  -3.9 °C 30.03 in /  1016.8 hPa Calm     100 % 0.00 in /  0 mm 0.0 W/m2
07:21 25.2 °F /  -3.8 °C 25.2 °F /  -3.8 °C 30.03 in /  1016.8 hPa Calm     100 % 0.00 in /  0 mm 0.0 W/m2
07:26 25.7 °F /  -3.5 °C 25.7 °F /  -3.5 °C 30.03 in /  1016.8 hPa Calm     100 % 0.00 in /  0 mm 27.0 W/m2
07:32 25.7 °F /  -3.5 °C 25.5 °F /  -3.6 °C 30.03 in /  1016.8 hPa Calm     99 % 0.00 in /  0 mm 0.0 W/m2
07:37 25.7 °F /  -3.5 °C 25.5 °F /  -3.6 °C 30.03 in /  1016.8 hPa Calm     99 % 0.00 in /  0 mm 0.0 W/m2
07:42 26.1 °F /  -3.3 °C 25.8 °F /  -3.4 °C 30.03 in /  1016.8 hPa Calm     99 % 0.00 in /  0 mm 10.5 W/m2
07:47 26.1 °F /  -3.3 °C 25.8 °F /  -3.4 °C 30.03 in /  1016.8 hPa Calm     99 % 0.00 in /  0 mm 0.0 W/m2
07:52 26.2 °F /  -3.2 °C 26.0 °F /  -3.3 °C 30.03 in /  1016.8 hPa Calm     99 % 0.00 in /  0 mm 0.0 W/m2
07:57 26.2 °F /  -3.2 °C 26.0 °F /  -3.3 °C 30.03 in /  1016.8 hPa Calm     99 % 0.00 in /  0 mm 7.5 W/m2
08:02 26.6 °F /  -3 °C 26.4 °F /  -3.1 °C 30.03 in /  1016.8 hPa Calm     99 % 0.00 in /  0 mm 0.0 W/m2
08:07 26.8 °F /  -2.9 °C 26.5 °F /  -3.1 °C 30.03 in /  1016.8 hPa Calm     99 % 0.00 in /  0 mm 0.0 W/m2
08:12 26.8 °F /  -2.9 °C 26.5 °F /  -3.1 °C 30.04 in /  1017.2 hPa Calm     99 % 0.00 in /  0 mm 16.5 W/m2
08:17 27.0 °F /  -2.8 °C 26.7 °F /  -2.9 °C 30.03 in /  1016.8 hPa Calm     99 % 0.00 in /  0 mm 36.0 W/m2
08:22 27.1 °F /  -2.7 °C 26.7 °F /  -2.9 °C 30.03 in /  1016.8 hPa Calm     98 % 0.00 in /  0 mm 15.0 W/m2
08:27 27.5 °F /  -2.5 °C 27.0 °F /  -2.8 °C 30.03 in /  1016.8 hPa Calm     98 % 0.00 in /  0 mm 21.0 W/m2
08:32 27.9 °F /  -2.3 °C 27.4 °F /  -2.6 °C 30.03 in /  1016.8 hPa Calm     98 % 0.00 in /  0 mm 30.0 W/m2
08:37 28.0 °F /  -2.2 °C 27.5 °F /  -2.5 °C 30.03 in /  1016.8 hPa Calm     98 % 0.00 in /  0 mm 25.5 W/m2
08:42 28.0 °F /  -2.2 °C 27.5 °F /  -2.5 °C 30.03 in /  1016.8 hPa Calm     98 % 0.00 in /  0 mm 30.0 W/m2
08:47 28.0 °F /  -2.2 °C 27.5 °F /  -2.5 °C 30.03 in /  1016.8 hPa Calm     98 % 0.00 in /  0 mm 10.5 W/m2
08:52 28.2 °F /  -2.1 °C 27.7 °F /  -2.4 °C 30.03 in /  1016.8 hPa Calm     98 % 0.00 in /  0 mm 37.5 W/m2
08:57 28.4 °F /  -2 °C 27.9 °F /  -2.3 °C 30.03 in /  1016.8 hPa Calm     98 % 0.00 in /  0 mm 19.5 W/m2
09:03 28.4 °F /  -2 °C 27.9 °F /  -2.3 °C 30.04 in /  1017.2 hPa Calm     98 % 0.00 in /  0 mm 13.5 W/m2
09:08 28.6 °F /  -1.9 °C 28.1 °F /  -2.2 °C 30.04 in /  1017.2 hPa Calm     98 % 0.00 in /  0 mm 22.5 W/m2
09:13 28.8 °F /  -1.8 °C 28.3 °F /  -2.1 °C 30.05 in /  1017.5 hPa Calm     98 % 0.00 in /  0 mm 24.0 W/m2
09:15 28.8 °F /  -1.8 °C 28.3 °F /  -2.1 °C 30.05 in /  1017.5 hPa Calm     98 % 0.00 in /  0 mm 42.0 W/m2
09:20 28.9 °F /  -1.7 °C 28.4 °F /  -2 °C 30.05 in /  1017.5 hPa Calm     98 % 0.00 in /  0 mm 30.0 W/m2
09:22 28.9 °F /  -1.7 °C 28.4 °F /  -2 °C 30.05 in /  1017.5 hPa Calm     98 % 0.00 in /  0 mm 12.0 W/m2
09:27 29.3 °F /  -1.5 °C 28.8 °F /  -1.8 °C 30.05 in /  1017.5 hPa Calm     98 % 0.00 in /  0 mm 10.5 W/m2
09:32 29.5 °F /  -1.4 °C 29.0 °F /  -1.7 °C 30.05 in /  1017.5 hPa Calm     98 % 0.00 in /  0 mm 0.0 W/m2
09:37 29.7 °F /  -1.3 °C 29.2 °F /  -1.6 °C 30.05 in /  1017.5 hPa Calm     98 % 0.00 in /  0 mm 30.0 W/m2
09:38 29.7 °F /  -1.3 °C 29.2 °F /  -1.6 °C 30.05 in /  1017.5 hPa Calm     98 % 0.00 in /  0 mm 30.0 W/m2
09:43 30.4 °F /  -0.9 °C 29.6 °F /  -1.3 °C 30.05 in /  1017.5 hPa Calm     97 % 0.00 in /  0 mm 9.0 W/m2
09:46 30.4 °F /  -0.9 °C 29.6 °F /  -1.3 °C 30.05 in /  1017.5 hPa Calm     97 % 0.01 in /  0.25 mm 0.0 W/m2 RA
09:51 30.7 °F /  -0.7 °C 30.0 °F /  -1.1 °C 30.05 in /  1017.5 hPa Calm     97 % 0.01 in /  0.25 mm 60.0 W/m2 RA
09:56 31.1 °F /  -0.5 °C 30.3 °F /  -0.9 °C 30.05 in /  1017.5 hPa Calm     97 % 0.02 in /  0.51 mm 67.5 W/m2 RA
10:01 31.1 °F /  -0.5 °C 30.3 °F /  -0.9 °C 30.05 in /  1017.5 hPa Calm     97 % 0.02 in /  0.51 mm 0.0 W/m2 RA
10:13 31.5 °F /  -0.3 °C 30.7 °F /  -0.7 °C 30.05 in /  1017.5 hPa Calm     97 % 0.02 in /  0.51 mm 10.5 W/m2 RA
10:18 31.5 °F /  -0.3 °C 30.7 °F /  -0.7 °C 30.05 in /  1017.5 hPa Calm     97 % 0.02 in /  0.51 mm 73.5 W/m2 RA
10:23 31.6 °F /  -0.2 °C 30.9 °F /  -0.6 °C 30.06 in /  1017.8 hPa Calm     97 % 0.03 in /  0.76 mm 15.0 W/m2 RA
10:26 31.6 °F /  -0.2 °C 30.9 °F /  -0.6 °C 30.05 in /  1017.5 hPa Calm     97 % 0.03 in /  0.76 mm 10.5 W/m2 RA
10:31 32.5 °F /  0.3 °C 31.8 °F /  -0.1 °C 30.06 in /  1017.8 hPa Calm     97 % 0.04 in /  1.02 mm 0.0 W/m2 RA
10:37 32.5 °F /  0.3 °C 32.0 °F /  0 °C 30.05 in /  1017.5 hPa Calm     98 % 0.04 in /  1.02 mm 10.5 W/m2 RA
10:38 32.7 °F /  0.4 °C 32.0 °F /  0 °C 30.05 in /  1017.5 hPa Calm     97 % 0.04 in /  1.02 mm 6.0 W/m2 RA
10:43 32.7 °F /  0.4 °C 32.2 °F /  0.1 °C 30.06 in /  1017.8 hPa Calm     98 % 0.05 in /  1.27 mm 21.0 W/m2 RA
10:46 32.9 °F /  0.5 °C 32.4 °F /  0.2 °C 30.06 in /  1017.8 hPa Calm     98 % 0.04 in /  1.02 mm 0.0 W/m2 RA
10:51 32.7 °F /  0.4 °C 32.2 °F /  0.1 °C 30.05 in /  1017.5 hPa Calm     98 % 0.04 in /  1.02 mm 93.0 W/m2 OVC
10:56 32.9 °F /  0.5 °C 32.4 °F /  0.2 °C 30.06 in /  1017.8 hPa Calm     98 % 0.04 in /  1.02 mm 54.0 W/m2 OVC
11:01 32.9 °F /  0.5 °C 32.4 °F /  0.2 °C 30.06 in /  1017.8 hPa Calm     98 % 0.03 in /  0.76 mm 31.5 W/m2 OVC
11:06 32.9 °F /  0.5 °C 32.4 °F /  0.2 °C 30.05 in /  1017.5 hPa Calm     98 % 0.03 in /  0.76 mm 9.0 W/m2 OVC
11:09 32.9 °F /  0.5 °C 32.4 °F /  0.2 °C 30.05 in /  1017.5 hPa Calm     98 % 0.03 in /  0.76 mm 63.0 W/m2 OVC
11:14 32.9 °F /  0.5 °C 32.4 °F /  0.2 °C 30.05 in /  1017.5 hPa Calm     98 % 0.02 in /  0.51 mm 0.0 W/m2 OVC
11:19 33.1 °F /  0.6 °C 32.6 °F /  0.3 °C 30.05 in /  1017.5 hPa Calm     98 % 0.02 in /  0.51 mm 57.0 W/m2 OVC
11:24 33.1 °F /  0.6 °C 32.6 °F /  0.3 °C 30.05 in /  1017.5 hPa Calm     98 % 0.02 in /  0.51 mm 0.0 W/m2 RA
11:30 33.3 °F /  0.7 °C 32.8 °F /  0.4 °C 30.05 in /  1017.5 hPa Calm     98 % 0.02 in /  0.51 mm 0.0 W/m2 RA
11:35 33.3 °F /  0.7 °C 32.8 °F /  0.4 °C 30.05 in /  1017.5 hPa Calm     98 % 0.02 in /  0.51 mm 19.5 W/m2 OVC
11:40 33.1 °F /  0.6 °C 32.6 °F /  0.3 °C 30.05 in /  1017.5 hPa Calm     98 % 0.01 in /  0.25 mm 0.0 W/m2 OVC
11:45 33.1 °F /  0.6 °C 32.6 °F /  0.3 °C 30.05 in /  1017.5 hPa Calm     98 % 0.01 in /  0.25 mm 0.0 W/m2 OVC
11:50 33.3 °F /  0.7 °C 32.8 °F /  0.4 °C 30.05 in /  1017.5 hPa Calm     98 % 0.01 in /  0.25 mm 7.5 W/m2 OVC
11:55 33.3 °F /  0.7 °C 32.8 °F /  0.4 °C 30.05 in /  1017.5 hPa Calm     98 % 0.01 in /  0.25 mm 0.0 W/m2 OVC
12:00 33.3 °F /  0.7 °C 32.8 °F /  0.4 °C 30.05 in /  1017.5 hPa SW 2.3 mph /  3.7 km/h 2.3 mph /  3.7 km/h 98 % 0.01 in /  0.25 mm 0.0 W/m2 OVC
12:05 33.6 °F /  0.9 °C 33.1 °F /  0.6 °C 30.05 in /  1017.5 hPa Calm     98 % 0.01 in /  0.25 mm 0.0 W/m2 OVC
12:07 33.4 °F /  0.8 °C 32.9 °F /  0.5 °C 30.05 in /  1017.5 hPa Calm     98 % 0.01 in /  0.25 mm 0.0 W/m2 OVC
12:12 33.6 °F /  0.9 °C 33.1 °F /  0.6 °C 30.05 in /  1017.5 hPa SW 2.3 mph /  3.7 km/h 2.3 mph /  3.7 km/h 98 % 0.01 in /  0.25 mm 0.0 W/m2 OVC
12:17 33.6 °F /  0.9 °C 33.1 °F /  0.6 °C 30.05 in /  1017.5 hPa Calm     98 % 0.01 in /  0.25 mm 24.0 W/m2 OVC
12:20 33.6 °F /  0.9 °C 33.1 °F /  0.6 °C 30.05 in /  1017.5 hPa Calm     98 % 0.01 in /  0.25 mm 0.0 W/m2 OVC
12:25 33.6 °F /  0.9 °C 33.1 °F /  0.6 °C 30.05 in /  1017.5 hPa Calm     98 % 0.00 in /  0 mm 0.0 W/m2 OVC
12:30 33.8 °F /  1 °C 33.3 °F /  0.7 °C 30.05 in /  1017.5 hPa Calm     98 % 0.00 in /  0 mm 33.0 W/m2 OVC
12:35 34.2 °F /  1.2 °C 33.7 °F /  0.9 °C 30.05 in /  1017.5 hPa Calm     98 % 0.00 in /  0 mm 0.0 W/m2 OVC
12:37 34.2 °F /  1.2 °C 33.4 °F /  0.8 °C 30.05 in /  1017.5 hPa Calm     97 % 0.00 in /  0 mm 0.0 W/m2 OVC
12:42 33.8 °F /  1 °C 33.3 °F /  0.7 °C 30.05 in /  1017.5 hPa Calm     98 % 0.00 in /  0 mm 0.0 W/m2 OVC
12:47 33.8 °F /  1 °C 33.3 °F /  0.7 °C 30.05 in /  1017.5 hPa Calm     98 % 0.00 in /  0 mm 69.0 W/m2 OVC
12:52 33.8 °F /  1 °C 33.3 °F /  0.7 °C 30.05 in /  1017.5 hPa Calm     98 % 0.00 in /  0 mm 0.0 W/m2 OVC
12:53 33.8 °F /  1 °C 33.3 °F /  0.7 °C 30.05 in /  1017.5 hPa Calm     98 % 0.00 in /  0 mm 0.0 W/m2 OVC
12:59 33.8 °F /  1 °C 33.3 °F /  0.7 °C 30.05 in /  1017.5 hPa Calm     98 % 0.00 in /  0 mm 37.5 W/m2 OVC
13:01 34.0 °F /  1.1 °C 33.5 °F /  0.8 °C 30.05 in /  1017.5 hPa Calm     98 % 0.00 in /  0 mm 0.0 W/m2 OVC
13:04 34.0 °F /  1.1 °C 33.5 °F /  0.8 °C 30.05 in /  1017.5 hPa Calm     98 % 0.00 in /  0 mm 0.0 W/m2 OVC
13:09 34.2 °F /  1.2 °C 33.7 °F /  0.9 °C 30.05 in /  1017.5 hPa Calm     98 % 0.00 in /  0 mm 0.0 W/m2 OVC
13:14 34.5 °F /  1.4 °C 34.0 °F /  1.1 °C 30.05 in /  1017.5 hPa Calm     98 % 0.00 in /  0 mm 27.0 W/m2 OVC
13:19 34.2 °F /  1.2 °C 33.7 °F /  0.9 °C 30.05 in /  1017.5 hPa Calm     98 % 0.00 in /  0 mm 0.0 W/m2 OVC
13:24 34.3 °F /  1.3 °C 33.8 °F /  1 °C 30.05 in /  1017.5 hPa Calm     98 % 0.00 in /  0 mm 55.5 W/m2 OVC
13:25 34.3 °F /  1.3 °C 33.8 °F /  1 °C 30.05 in /  1017.5 hPa Calm     98 % 0.00 in /  0 mm 24.0 W/m2 OVC
13:30 34.5 °F /  1.4 °C 34.0 °F /  1.1 °C 30.05 in /  1017.5 hPa Calm     98 % 0.00 in /  0 mm 7.5 W/m2 OVC
13:36 34.5 °F /  1.4 °C 34.0 °F /  1.1 °C 30.06 in /  1017.8 hPa Calm     98 % 0.00 in /  0 mm 0.0 W/m2 OVC
13:41 34.5 °F /  1.4 °C 34.0 °F /  1.1 °C 30.06 in /  1017.8 hPa Calm     98 % 0.00 in /  0 mm 66.0 W/m2 OVC
13:46 34.2 °F /  1.2 °C 33.7 °F /  0.9 °C 30.06 in /  1017.8 hPa Calm     98 % 0.00 in /  0 mm 54.0 W/m2 OVC
13:51 34.2 °F /  1.2 °C 33.7 °F /  0.9 °C 30.06 in /  1017.8 hPa Calm     98 % 0.00 in /  0 mm 0.0 W/m2 OVC
13:56 34.5 °F /  1.4 °C 34.0 °F /  1.1 °C 30.06 in /  1017.8 hPa Calm     98 % 0.00 in /  0 mm 31.5 W/m2 OVC
13:59 34.5 °F /  1.4 °C 34.0 °F /  1.1 °C 30.06 in /  1017.8 hPa Calm     98 % 0.00 in /  0 mm 58.5 W/m2 OVC
14:12 34.3 °F /  1.3 °C 33.8 °F /  1 °C 30.07 in /  1018.2 hPa Calm     98 % 0.00 in /  0 mm 24.0 W/m2
14:17 34.2 °F /  1.2 °C 33.7 °F /  0.9 °C 30.08 in /  1018.5 hPa Calm     98 % 0.00 in /  0 mm 0.0 W/m2
14:22 34.2 °F /  1.2 °C 33.7 °F /  0.9 °C 30.08 in /  1018.5 hPa Calm     98 % 0.00 in /  0 mm 0.0 W/m2
14:27 34.5 °F /  1.4 °C 34.0 °F /  1.1 °C 30.08 in /  1018.5 hPa Calm     98 % 0.00 in /  0 mm 24.0 W/m2
14:32 34.9 °F /  1.6 °C 34.4 °F /  1.3 °C 30.08 in /  1018.5 hPa Calm     98 % 0.00 in /  0 mm 0.0 W/m2
14:37 34.9 °F /  1.6 °C 34.4 °F /  1.3 °C 30.08 in /  1018.5 hPa Calm     98 % 0.00 in /  0 mm 0.0 W/m2
14:42 34.7 °F /  1.5 °C 34.2 °F /  1.2 °C 30.08 in /  1018.5 hPa Calm     98 % 0.00 in /  0 mm 24.0 W/m2
14:47 34.5 °F /  1.4 °C 34.0 °F /  1.1 °C 30.08 in /  1018.5 hPa Calm     98 % 0.00 in /  0 mm 0.0 W/m2
14:52 34.3 °F /  1.3 °C 33.8 °F /  1 °C 30.08 in /  1018.5 hPa Calm     98 % 0.00 in /  0 mm 24.0 W/m2
14:54 34.3 °F /  1.3 °C 33.8 °F /  1 °C 30.08 in /  1018.5 hPa Calm     98 % 0.00 in /  0 mm 24.0 W/m2
14:59 34.3 °F /  1.3 °C 33.8 °F /  1 °C 30.08 in /  1018.5 hPa Calm     98 % 0.00 in /  0 mm 24.0 W/m2
15:00 34.3 °F /  1.3 °C 33.8 °F /  1 °C 30.08 in /  1018.5 hPa Calm     98 % 0.00 in /  0 mm 24.0 W/m2
15:05 34.3 °F /  1.3 °C 34.1 °F /  1.2 °C 30.08 in /  1018.5 hPa Calm     99 % 0.00 in /  0 mm 24.0 W/m2
15:10 34.5 °F /  1.4 °C 34.3 °F /  1.3 °C 30.08 in /  1018.5 hPa Calm     99 % 0.00 in /  0 mm 24.0 W/m2
15:20 33.6 °F /  0.9 °C 33.4 °F /  0.8 °C 30.08 in /  1018.5 hPa Calm     99 % 0.00 in /  0 mm 24.0 W/m2
15:26 33.6 °F /  0.9 °C 33.4 °F /  0.8 °C 30.08 in /  1018.5 hPa Calm     99 % 0.00 in /  0 mm 24.0 W/m2
15:29 33.3 °F /  0.7 °C 33.0 °F /  0.6 °C 30.08 in /  1018.5 hPa Calm     99 % 0.00 in /  0 mm 24.0 W/m2
15:34 33.4 °F /  0.8 °C 33.4 °F /  0.8 °C 30.08 in /  1018.5 hPa Calm     100 % 0.00 in /  0 mm 0.0 W/m2
15:44 33.6 °F /  0.9 °C 33.6 °F /  0.9 °C 30.08 in /  1018.5 hPa Calm     100 % 0.00 in /  0 mm 24.0 W/m2
15:49 33.3 °F /  0.7 °C 33.0 °F /  0.6 °C 30.08 in /  1018.5 hPa Calm     99 % 0.00 in /  0 mm 24.0 W/m2
15:52 33.3 °F /  0.7 °C 33.3 °F /  0.7 °C 30.09 in /  1018.8 hPa Calm     100 % 0.00 in /  0 mm 24.0 W/m2
16:02 33.3 °F /  0.7 °C 33.3 °F /  0.7 °C 30.10 in /  1019.2 hPa Calm     100 % 0.00 in /  0 mm 24.0 W/m2 OVC
16:05 33.3 °F /  0.7 °C 33.3 °F /  0.7 °C 30.10 in /  1019.2 hPa Calm     100 % 0.00 in /  0 mm 24.0 W/m2
16:07 33.1 °F /  0.6 °C 33.1 °F /  0.6 °C 30.10 in /  1019.2 hPa Calm     100 % 0.00 in /  0 mm 24.0 W/m2
16:12 33.1 °F /  0.6 °C 33.1 °F /  0.6 °C 30.10 in /  1019.2 hPa Calm     100 % 0.00 in /  0 mm 24.0 W/m2
16:17 32.9 °F /  0.5 °C 32.9 °F /  0.5 °C 30.10 in /  1019.2 hPa Calm     100 % 0.00 in /  0 mm 24.0 W/m2
16:22 33.1 °F /  0.6 °C 33.1 °F /  0.6 °C 30.11 in /  1019.5 hPa Calm     100 % 0.00 in /  0 mm 24.0 W/m2
16:25 32.9 °F /  0.5 °C 32.9 °F /  0.5 °C 30.11 in /  1019.5 hPa Calm     100 % 0.00 in /  0 mm 24.0 W/m2
16:30 32.7 °F /  0.4 °C 32.7 °F /  0.4 °C 30.11 in /  1019.5 hPa Calm     100 % 0.00 in /  0 mm 0.0 W/m2
16:36 32.5 °F /  0.3 °C 32.5 °F /  0.3 °C 30.11 in /  1019.5 hPa Calm     100 % 0.00 in /  0 mm 0.0 W/m2
16:39 32.7 °F /  0.4 °C 32.7 °F /  0.4 °C 30.11 in /  1019.5 hPa Calm     100 % 0.00 in /  0 mm 15.0 W/m2
16:44 32.9 °F /  0.5 °C 32.9 °F /  0.5 °C 30.11 in /  1019.5 hPa Calm     100 % 0.00 in /  0 mm 0.0 W/m2
16:45 32.9 °F /  0.5 °C 32.9 °F /  0.5 °C 30.11 in /  1019.5 hPa Calm     100 % 0.00 in /  0 mm 0.0 W/m2
16:50 33.1 °F /  0.6 °C 33.1 °F /  0.6 °C 30.12 in /  1019.9 hPa Calm     100 % 0.00 in /  0 mm 12.0 W/m2
16:55 33.3 °F /  0.7 °C 33.3 °F /  0.7 °C 30.13 in /  1020.2 hPa Calm     100 % 0.00 in /  0 mm 7.5 W/m2
17:00 33.4 °F /  0.8 °C 33.4 °F /  0.8 °C 30.12 in /  1019.9 hPa Calm     100 % 0.00 in /  0 mm 0.0 W/m2
17:05 33.6 °F /  0.9 °C 33.6 °F /  0.9 °C 30.12 in /  1019.9 hPa Calm     100 % 0.00 in /  0 mm 37.5 W/m2
17:10 33.4 °F /  0.8 °C 33.4 °F /  0.8 °C 30.13 in /  1020.2 hPa Calm     100 % 0.00 in /  0 mm 15.0 W/m2
17:15 33.4 °F /  0.8 °C 33.4 °F /  0.8 °C 30.13 in /  1020.2 hPa Calm     100 % 0.00 in /  0 mm 0.0 W/m2
17:20 33.4 °F /  0.8 °C 33.4 °F /  0.8 °C 30.13 in /  1020.2 hPa Calm     100 % 0.00 in /  0 mm 10.5 W/m2
17:24 33.6 °F /  0.9 °C 33.6 °F /  0.9 °C 30.13 in /  1020.2 hPa Calm     100 % 0.00 in /  0 mm 6.0 W/m2
17:27 33.8 °F /  1 °C 33.8 °F /  1 °C 30.13 in /  1020.2 hPa Calm     100 % 0.00 in /  0 mm 0.0 W/m2
17:32 33.6 °F /  0.9 °C 33.6 °F /  0.9 °C 30.13 in /  1020.2 hPa Calm     100 % 0.00 in /  0 mm 28.5 W/m2
17:35 33.6 °F /  0.9 °C 33.6 °F /  0.9 °C 30.13 in /  1020.2 hPa Calm     100 % 0.00 in /  0 mm 18.0 W/m2
17:40 33.4 °F /  0.8 °C 33.4 °F /  0.8 °C 30.13 in /  1020.2 hPa Calm     100 % 0.00 in /  0 mm 6.0 W/m2
17:43 33.3 °F /  0.7 °C 33.3 °F /  0.7 °C 30.13 in /  1020.2 hPa Calm     100 % 0.00 in /  0 mm 0.0 W/m2
17:48 33.3 °F /  0.7 °C 33.3 °F /  0.7 °C 30.13 in /  1020.2 hPa Calm     100 % 0.00 in /  0 mm 12.0 W/m2
17:54 33.4 °F /  0.8 °C 33.4 °F /  0.8 °C 30.13 in /  1020.2 hPa Calm     100 % 0.00 in /  0 mm 0.0 W/m2
17:59 33.3 °F /  0.7 °C 33.3 °F /  0.7 °C 30.13 in /  1020.2 hPa Calm     100 % 0.00 in /  0 mm 0.0 W/m2
18:04 33.3 °F /  0.7 °C 33.3 °F /  0.7 °C 30.13 in /  1020.2 hPa Calm     100 % 0.00 in /  0 mm 0.0 W/m2
18:09 33.3 °F /  0.7 °C 33.3 °F /  0.7 °C 30.13 in /  1020.2 hPa Calm     100 % 0.00 in /  0 mm 0.0 W/m2
18:14 33.1 °F /  0.6 °C 33.1 °F /  0.6 °C 30.14 in /  1020.5 hPa Calm     100 % 0.00 in /  0 mm 9.0 W/m2
18:19 33.3 °F /  0.7 °C 33.3 °F /  0.7 °C 30.14 in /  1020.5 hPa Calm     100 % 0.00 in /  0 mm 0.0 W/m2
18:24 33.4 °F /  0.8 °C 33.4 °F /  0.8 °C 30.14 in /  1020.5 hPa Calm     100 % 0.00 in /  0 mm 0.0 W/m2
18:29 33.6 °F /  0.9 °C 33.6 °F /  0.9 °C 30.14 in /  1020.5 hPa Calm     100 % 0.00 in /  0 mm 7.5 W/m2
18:34 32.9 °F /  0.5 °C 32.9 °F /  0.5 °C 30.14 in /  1020.5 hPa Calm     100 % 0.00 in /  0 mm 0.0 W/m2
18:39 33.3 °F /  0.7 °C 33.3 °F /  0.7 °C 30.14 in /  1020.5 hPa Calm     100 % 0.00 in /  0 mm 0.0 W/m2
18:43 33.3 °F /  0.7 °C 33.3 °F /  0.7 °C 30.15 in /  1020.9 hPa Calm     100 % 0.00 in /  0 mm 30.0 W/m2
18:48 33.3 °F /  0.7 °C 33.3 °F /  0.7 °C 30.15 in /  1020.9 hPa Calm     100 % 0.00 in /  0 mm 0.0 W/m2
18:53 33.4 °F /  0.8 °C 33.4 °F /  0.8 °C 30.15 in /  1020.9 hPa Calm     100 % 0.00 in /  0 mm 0.0 W/m2
18:58 33.4 °F /  0.8 °C 33.4 °F /  0.8 °C 30.16 in /  1021.2 hPa Calm     100 % 0.00 in /  0 mm 24.0 W/m2
19:03 33.6 °F /  0.9 °C 33.6 °F /  0.9 °C 30.17 in /  1021.6 hPa Calm     100 % 0.00 in /  0 mm 0.0 W/m2
19:09 33.6 °F /  0.9 °C 33.6 °F /  0.9 °C 30.16 in /  1021.2 hPa Calm     100 % 0.01 in /  0.25 mm 0.0 W/m2 RA
19:12 33.6 °F /  0.9 °C 33.6 °F /  0.9 °C 30.16 in /  1021.2 hPa Calm     100 % 0.01 in /  0.25 mm 0.0 W/m2 RA
19:17 33.6 °F /  0.9 °C 33.4 °F /  0.8 °C 30.17 in /  1021.6 hPa Calm     99 % 0.01 in /  0.25 mm 0.0 W/m2 RA
19:22 33.6 °F /  0.9 °C 33.4 °F /  0.8 °C 30.17 in /  1021.6 hPa Calm     99 % 0.01 in /  0.25 mm 0.0 W/m2
19:27 33.6 °F /  0.9 °C 33.4 °F /  0.8 °C 30.17 in /  1021.6 hPa Calm     99 % 0.01 in /  0.25 mm 21.0 W/m2
19:31 33.6 °F /  0.9 °C 33.4 °F /  0.8 °C 30.17 in /  1021.6 hPa Calm     99 % 0.01 in /  0.25 mm 9.0 W/m2 OVC
19:36 33.6 °F /  0.9 °C 33.4 °F /  0.8 °C 30.17 in /  1021.6 hPa Calm     99 % 0.01 in /  0.25 mm 0.0 W/m2
19:41 33.6 °F /  0.9 °C 33.4 °F /  0.8 °C 30.17 in /  1021.6 hPa Calm     99 % 0.01 in /  0.25 mm 0.0 W/m2
19:45 33.6 °F /  0.9 °C 33.4 °F /  0.8 °C 30.18 in /  1021.9 hPa Calm     99 % 0.01 in /  0.25 mm 16.5 W/m2 CLR
19:50 33.4 °F /  0.8 °C 33.2 °F /  0.7 °C 30.18 in /  1021.9 hPa Calm     99 % 0.01 in /  0.25 mm 0.0 W/m2 CLR
19:55 33.6 °F /  0.9 °C 33.1 °F /  0.6 °C 30.19 in /  1022.2 hPa Calm     98 % 0.01 in /  0.25 mm 0.0 W/m2
20:00 33.6 °F /  0.9 °C 33.1 °F /  0.6 °C 30.19 in /  1022.2 hPa Calm     98 % 0.01 in /  0.25 mm 12.0 W/m2 CLR
20:05 33.6 °F /  0.9 °C 33.1 °F /  0.6 °C 30.19 in /  1022.2 hPa Calm     98 % 0.01 in /  0.25 mm 0.0 W/m2
20:11 33.6 °F /  0.9 °C 33.1 °F /  0.6 °C 30.19 in /  1022.2 hPa Calm     98 % 0.00 in /  0 mm 13.5 W/m2
20:16 33.8 °F /  1 °C 33.0 °F /  0.6 °C 30.19 in /  1022.2 hPa Calm     97 % 0.00 in /  0 mm 0.0 W/m2
20:26 33.4 °F /  0.8 °C 32.7 °F /  0.4 °C 30.19 in /  1022.2 hPa Calm     97 % 0.00 in /  0 mm 7.5 W/m2
20:32 33.3 °F /  0.7 °C 32.5 °F /  0.3 °C 30.19 in /  1022.2 hPa Calm     97 % 0.00 in /  0 mm 0.0 W/m2
Wether-Above
Compliments of Weather Underground - 2.25 mb
Welcome to Weather-Above
Cheddleton weather station supplies various organisations with data from our weather station one of them is the weather Underground this information displayed here is coming from the weather Underground server 

If any information is used please acknowledge the source to www weather-above.com or weather Underground